createdAt,value
2018-12-31T00:03:36.851Z,24.18
2018-12-31T00:06:05.638Z,23.70
2018-12-31T00:08:36.747Z,25.95
2018-12-31T00:11:18.511Z,24.30
2018-12-31T00:13:58.934Z,25.30
2018-12-31T00:16:39.364Z,29.95
2018-12-31T00:19:19.099Z,25.45
2018-12-31T00:21:59.943Z,29.25
2018-12-31T00:24:52.283Z,28.52
2018-12-31T00:27:41.390Z,31.70
2018-12-31T00:30:22.067Z,28.70
2018-12-31T00:32:53.091Z,27.27
2018-12-31T00:35:23.080Z,27.65
2018-12-31T00:38:05.355Z,28.05
2018-12-31T00:40:53.320Z,32.28
2018-12-31T00:43:40.246Z,31.60
2018-12-31T00:46:08.194Z,31.87
2018-12-31T00:48:55.283Z,34.03
2018-12-31T00:51:35.032Z,28.10
2018-12-31T00:54:14.944Z,29.60
2018-12-31T00:56:55.115Z,33.98
2018-12-31T00:59:36.176Z,35.03
2018-12-31T01:02:17.019Z,32.90
2018-12-31T01:04:58.558Z,37.75
2018-12-31T01:07:39.286Z,41.53
2018-12-31T01:10:08.966Z,39.25
2018-12-31T01:12:58.151Z,39.73
2018-12-31T01:15:28.558Z,42.15
2018-12-31T01:18:17.787Z,47.73
2018-12-31T01:20:58.628Z,34.90
2018-12-31T01:23:38.534Z,40.10
2018-12-31T01:26:26.095Z,35.48
2018-12-31T01:29:08.068Z,32.78
2018-12-31T01:31:49.342Z,32.15
2018-12-31T01:34:30.295Z,33.58
2018-12-31T01:37:11.196Z,37.30
2018-12-31T01:39:51.780Z,34.18
2018-12-31T01:42:32.904Z,35.13
2018-12-31T01:45:03.110Z,37.78
2018-12-31T01:48:10.698Z,36.33
2018-12-31T01:50:50.716Z,31.07
2018-12-31T01:53:17.819Z,34.65
2018-12-31T01:55:47.571Z,34.63
2018-12-31T01:58:26.943Z,35.30
2018-12-31T02:00:53.900Z,36.38
2018-12-31T02:03:40.576Z,39.18
2018-12-31T02:06:26.808Z,34.13
2018-12-31T02:09:07.274Z,34.98
2018-12-31T02:11:48.295Z,36.00
2018-12-31T02:14:29.441Z,37.45
2018-12-31T02:17:10.619Z,41.45
2018-12-31T02:19:51.917Z,48.45
2018-12-31T02:22:33.128Z,44.03
2018-12-31T02:25:13.021Z,41.90
2018-12-31T02:27:53.284Z,44.65
2018-12-31T02:30:33.159Z,45.25
2018-12-31T02:33:13.116Z,41.98
2018-12-31T02:35:52.961Z,42.40
2018-12-31T02:38:33.150Z,40.30
2018-12-31T02:41:14.455Z,43.13
2018-12-31T02:43:46.158Z,34.45
2018-12-31T02:46:34.840Z,31.52
2018-12-31T02:52:25.902Z,38.17
2018-12-31T02:54:52.827Z,30.45
2018-12-31T02:57:39.675Z,33.05
2018-12-31T03:00:24.395Z,36.80
2018-12-31T03:03:04.485Z,34.73
2018-12-31T03:05:44.302Z,40.78
2018-12-31T03:08:25.666Z,36.70
2018-12-31T03:11:06.262Z,33.05
2018-12-31T03:13:47.423Z,44.98
2018-12-31T03:16:28.413Z,43.60
2018-12-31T03:18:56.867Z,38.28
2018-12-31T03:21:44.247Z,39.70
2018-12-31T03:24:25.130Z,41.30
2018-12-31T03:27:06.629Z,44.33
2018-12-31T03:29:47.096Z,39.20
2018-12-31T03:32:17.544Z,39.15
2018-12-31T03:35:04.472Z,39.42
2018-12-31T03:37:44.795Z,33.65
2018-12-31T03:40:25.211Z,32.73
2018-12-31T03:42:56.271Z,32.53
2018-12-31T03:45:44.827Z,39.55
2018-12-31T03:48:14.827Z,32.17
2018-12-31T03:51:03.657Z,35.05
2018-12-31T03:53:34.389Z,34.92
2018-12-31T03:56:23.208Z,35.70
2018-12-31T03:58:52.658Z,35.63
2018-12-31T04:01:41.731Z,41.65
2018-12-31T04:04:22.476Z,44.33
2018-12-31T04:07:04.120Z,45.40
2018-12-31T04:09:32.237Z,48.55
2018-12-31T04:12:19.469Z,47.40
2018-12-31T04:14:50.563Z,50.65
2018-12-31T04:17:37.663Z,49.95
2018-12-31T04:20:09.716Z,56.40
2018-12-31T04:22:58.716Z,54.85
2018-12-31T04:25:28.595Z,60.85
2018-12-31T04:28:17.463Z,60.85
2018-12-31T04:30:59.925Z,59.35
2018-12-31T04:33:43.698Z,60.65
2018-12-31T04:36:24.797Z,68.25
2018-12-31T04:39:05.118Z,72.35
2018-12-31T04:41:44.843Z,72.72
2018-12-31T04:44:25.112Z,79.12
2018-12-31T04:47:05.191Z,70.95
2018-12-31T04:49:45.472Z,64.03
2018-12-31T04:52:25.201Z,82.92
2018-12-31T04:55:06.291Z,67.30
2018-12-31T04:57:47.035Z,65.62
2018-12-31T05:00:28.497Z,61.40
2018-12-31T05:02:56.534Z,71.28
2018-12-31T05:05:45.552Z,75.32
2018-12-31T05:08:27.800Z,68.72
2018-12-31T05:11:16.066Z,69.87
2018-12-31T05:13:43.476Z,70.57
2018-12-31T05:16:23.291Z,83.75
2018-12-31T05:19:03.235Z,77.90
2018-12-31T05:21:43.628Z,83.22
2018-12-31T05:24:23.700Z,81.65
2018-12-31T05:27:03.903Z,75.75
2018-12-31T05:29:45.087Z,77.10
2018-12-31T05:32:35.939Z,86.53
2018-12-31T05:35:24.708Z,81.60
2018-12-31T05:38:06.009Z,88.72
2018-12-31T05:40:35.644Z,83.07
2018-12-31T05:43:24.455Z,88.10
2018-12-31T05:46:04.179Z,90.90
2018-12-31T05:48:44.826Z,86.67
2018-12-31T05:51:16.406Z,93.33
2018-12-31T05:54:03.157Z,92.53
2018-12-31T05:56:43.311Z,89.65
2018-12-31T05:59:25.372Z,84.80
2018-12-31T06:02:07.127Z,87.95
2018-12-31T06:07:34.391Z,92.70
2018-12-31T06:10:02.834Z,87.20
2018-12-31T06:12:32.179Z,85.07
2018-12-31T06:15:21.006Z,83.60
2018-12-31T06:17:52.868Z,82.92
2018-12-31T06:20:35.036Z,80.87
2018-12-31T06:23:14.931Z,84.55
2018-12-31T06:25:55.532Z,79.35
2018-12-31T06:28:35.146Z,79.90
2018-12-31T06:31:15.458Z,65.20
2018-12-31T06:33:55.428Z,69.60
2018-12-31T06:36:35.928Z,67.05
2018-12-31T06:39:16.391Z,65.70
2018-12-31T06:41:57.470Z,72.70
2018-12-31T06:44:28.499Z,75.80
2018-12-31T06:46:58.235Z,74.82
2018-12-31T06:49:40.049Z,67.17
2018-12-31T06:52:21.275Z,65.22
2018-12-31T06:54:49.736Z,62.55
2018-12-31T06:57:38.781Z,68.97
2018-12-31T07:00:20.727Z,65.32
2018-12-31T07:02:50.354Z,69.12
2018-12-31T07:05:17.304Z,64.92
2018-12-31T07:07:57.526Z,56.88
2018-12-31T07:10:37.550Z,62.25
2018-12-31T07:13:17.647Z,77.37
2018-12-31T07:16:02.163Z,67.62
2018-12-31T07:18:41.923Z,60.78
2018-12-31T07:21:19.309Z,58.30
2018-12-31T07:27:11.972Z,64.75
2018-12-31T07:29:54.071Z,60.70
2018-12-31T07:32:34.419Z,56.73
2018-12-31T07:35:14.215Z,58.50
2018-12-31T07:37:55.925Z,55.28
2018-12-31T07:40:35.623Z,56.05
2018-12-31T07:43:07.117Z,51.70
2018-12-31T07:45:53.945Z,52.93
2018-12-31T07:48:24.856Z,58.60
2018-12-31T07:51:13.492Z,58.78
2018-12-31T07:53:55.650Z,60.67
2018-12-31T07:56:36.772Z,50.85
2018-12-31T07:59:06.431Z,48.30
2018-12-31T08:01:55.022Z,45.23
2018-12-31T08:04:37.115Z,54.65
2018-12-31T08:07:04.058Z,53.17
2018-12-31T08:09:51.300Z,54.75
2018-12-31T08:12:31.344Z,46.20
2018-12-31T08:15:11.493Z,49.23
2018-12-31T08:17:51.171Z,42.58
2018-12-31T08:20:25.010Z,45.63
2018-12-31T08:23:12.279Z,46.53
2018-12-31T08:25:42.010Z,41.15
2018-12-31T08:28:31.134Z,38.48
2018-12-31T08:31:13.888Z,41.95
2018-12-31T08:33:56.033Z,36.80
2018-12-31T08:36:37.071Z,42.03
2018-12-31T08:42:03.750Z,41.37
2018-12-31T08:44:44.268Z,41.33
2018-12-31T08:47:23.626Z,35.85
2018-12-31T08:50:05.937Z,40.30
2018-12-31T08:52:33.541Z,38.15
2018-12-31T08:55:20.916Z,37.13
2018-12-31T08:58:22.356Z,34.50
2018-12-31T09:00:50.954Z,42.20
2018-12-31T09:03:33.380Z,46.90
2018-12-31T09:06:14.360Z,43.65
2018-12-31T09:08:55.506Z,45.12
2018-12-31T09:11:36.356Z,41.23
2018-12-31T09:14:16.567Z,45.70
2018-12-31T09:16:56.354Z,48.17
2018-12-31T09:19:36.336Z,42.75
2018-12-31T09:22:16.427Z,44.53
2018-12-31T09:24:56.346Z,39.13
2018-12-31T09:27:36.374Z,47.10
2018-12-31T09:30:17.420Z,42.30
2018-12-31T09:32:58.053Z,46.83
2018-12-31T09:35:39.058Z,35.75
2018-12-31T09:38:20.304Z,37.03
2018-12-31T09:41:01.399Z,40.75
2018-12-31T09:43:30.039Z,38.90
2018-12-31T09:46:18.150Z,40.08
2018-12-31T09:48:58.286Z,46.95
2018-12-31T09:51:38.531Z,44.18
2018-12-31T09:54:18.387Z,41.15
2018-12-31T09:56:58.578Z,44.77
2018-12-31T09:59:37.915Z,44.88
2018-12-31T10:02:18.056Z,46.05
2018-12-31T10:04:59.338Z,47.17
2018-12-31T10:07:40.590Z,45.23
2018-12-31T10:10:21.384Z,45.65
2018-12-31T10:13:12.912Z,39.53
2018-12-31T10:16:01.841Z,41.77
2018-12-31T10:18:41.639Z,51.05
2018-12-31T10:21:11.292Z,45.58
2018-12-31T10:23:38.834Z,44.25
2018-12-31T10:26:18.932Z,48.83
2018-12-31T10:28:58.531Z,49.35
2018-12-31T10:31:38.845Z,45.00
2018-12-31T10:34:18.404Z,47.83
2018-12-31T10:36:45.711Z,43.73
2018-12-31T10:39:33.134Z,52.67
2018-12-31T10:42:02.466Z,47.30
2018-12-31T10:44:51.315Z,49.40
2018-12-31T10:47:32.711Z,43.68
2018-12-31T10:50:14.123Z,49.77
2018-12-31T10:52:54.979Z,43.83
2018-12-31T10:55:35.935Z,41.42
2018-12-31T10:58:17.496Z,38.05
2018-12-31T11:00:50.085Z,45.33
2018-12-31T11:03:36.843Z,37.50
2018-12-31T11:06:16.303Z,42.08
2018-12-31T11:08:56.177Z,42.05
2018-12-31T11:11:26.030Z,42.90
2018-12-31T11:14:12.712Z,44.25
2018-12-31T11:16:45.993Z,40.25
2018-12-31T11:19:34.552Z,37.35
2018-12-31T11:22:04.875Z,44.33
2018-12-31T11:24:52.438Z,46.65
2018-12-31T11:27:23.813Z,46.25
2018-12-31T11:30:12.639Z,42.43
2018-12-31T11:32:42.639Z,41.70
2018-12-31T11:35:31.306Z,39.65
2018-12-31T11:38:01.227Z,40.65
2018-12-31T11:40:28.411Z,35.33
2018-12-31T11:43:08.424Z,35.30
2018-12-31T11:48:32.244Z,33.90
2018-12-31T11:51:12.490Z,40.73
2018-12-31T11:53:53.558Z,35.85
2018-12-31T11:56:25.922Z,36.23
2018-12-31T11:58:54.878Z,41.60
2018-12-31T12:01:36.496Z,37.38
2018-12-31T12:04:17.145Z,38.48
2018-12-31T12:06:58.264Z,34.55
2018-12-31T12:09:40.651Z,40.00
2018-12-31T12:12:27.327Z,40.65
2018-12-31T12:18:26.482Z,42.38
2018-12-31T12:21:07.402Z,43.10
2018-12-31T12:23:40.084Z,45.92
2018-12-31T12:26:28.675Z,39.58
2018-12-31T12:29:10.717Z,44.45
2018-12-31T12:31:56.747Z,46.90
2018-12-31T12:34:24.170Z,39.53
2018-12-31T12:36:53.115Z,37.90
2018-12-31T12:39:38.007Z,40.17
2018-12-31T12:42:17.787Z,41.68
2018-12-31T12:44:44.757Z,49.90
2018-12-31T12:47:31.514Z,49.83
2018-12-31T12:50:17.658Z,43.38
2018-12-31T12:52:59.733Z,43.58
2018-12-31T12:55:40.963Z,32.63
2018-12-31T12:58:22.028Z,38.25
2018-12-31T13:01:03.155Z,39.00
2018-12-31T13:03:31.374Z,50.52
2018-12-31T13:06:19.938Z,58.52
2018-12-31T13:09:02.108Z,45.67
2018-12-31T13:11:33.790Z,42.43
2018-12-31T13:14:00.938Z,46.23
2018-12-31T13:16:40.602Z,42.13
2018-12-31T13:19:07.803Z,48.83
2018-12-31T13:21:36.375Z,48.60
2018-12-31T13:24:22.951Z,42.88
2018-12-31T13:27:07.571Z,63.00
2018-12-31T13:29:53.247Z,50.20
2018-12-31T13:32:33.606Z,57.25
2018-12-31T13:35:14.682Z,42.20
2018-12-31T13:37:55.971Z,48.30
2018-12-31T13:40:37.159Z,53.55
2018-12-31T13:43:18.315Z,52.48
2018-12-31T13:45:48.673Z,50.70
2018-12-31T13:48:47.539Z,52.75
2018-12-31T13:51:27.502Z,46.98
2018-12-31T13:54:07.355Z,57.83
2018-12-31T13:56:47.368Z,49.83
2018-12-31T13:59:27.358Z,51.18
2018-12-31T14:02:07.407Z,51.15
2018-12-31T14:04:35.366Z,46.13
2018-12-31T14:07:22.292Z,59.23
2018-12-31T14:10:05.427Z,44.35
2018-12-31T14:12:45.852Z,56.58
2018-12-31T14:15:26.851Z,47.13
2018-12-31T14:21:20.200Z,47.58
2018-12-31T14:24:00.352Z,48.60
2018-12-31T14:26:40.404Z,47.65
2018-12-31T14:29:20.516Z,64.67
2018-12-31T14:32:00.765Z,57.30
2018-12-31T14:34:41.762Z,50.03
2018-12-31T14:37:22.779Z,51.65
2018-12-31T14:40:03.836Z,48.78
2018-12-31T14:42:34.567Z,51.48
2018-12-31T14:45:23.227Z,56.83
2018-12-31T14:47:53.477Z,47.35
2018-12-31T14:50:41.147Z,46.42
2018-12-31T14:53:11.866Z,51.28
2018-12-31T14:55:58.456Z,47.55
2018-12-31T14:58:37.986Z,47.25
2018-12-31T15:01:18.218Z,47.83
2018-12-31T15:03:58.247Z,51.77
2018-12-31T15:06:38.478Z,46.40
2018-12-31T15:09:11.639Z,48.92
2018-12-31T15:12:00.109Z,52.43
2018-12-31T15:14:48.900Z,42.25
2018-12-31T15:17:37.400Z,42.65
2018-12-31T15:20:24.443Z,46.25
2018-12-31T15:23:04.887Z,44.73
2018-12-31T15:25:44.746Z,42.38
2018-12-31T15:28:24.126Z,42.58
2018-12-31T15:31:04.037Z,38.28
2018-12-31T15:33:44.323Z,35.63
2018-12-31T15:36:24.336Z,41.35
2018-12-31T15:38:52.305Z,41.68
2018-12-31T15:41:42.178Z,42.60
2018-12-31T15:44:23.522Z,51.50
2018-12-31T15:47:04.631Z,40.78
2018-12-31T15:49:45.839Z,42.78
2018-12-31T15:52:26.751Z,42.03
2018-12-31T15:55:07.719Z,44.30
2018-12-31T15:57:47.735Z,39.33
2018-12-31T16:00:27.923Z,43.90
2018-12-31T16:03:07.725Z,41.90
2018-12-31T16:05:47.983Z,38.85
2018-12-31T16:08:37.961Z,50.55
2018-12-31T16:11:26.215Z,47.45
2018-12-31T16:14:12.950Z,52.17
2018-12-31T16:16:54.190Z,58.08
2018-12-31T16:19:35.311Z,63.90
2018-12-31T16:22:16.127Z,164.95
2018-12-31T16:24:56.215Z,103.10
2018-12-31T16:27:36.543Z,55.78
2018-12-31T16:30:16.332Z,68.22
2018-12-31T16:32:56.332Z,75.57
2018-12-31T16:35:36.255Z,72.30
2018-12-31T16:38:17.880Z,64.62
2018-12-31T16:40:50.914Z,60.50
2018-12-31T16:43:39.561Z,52.80
2018-12-31T16:46:13.273Z,55.78
2018-12-31T16:49:10.276Z,49.88
2018-12-31T16:51:52.209Z,53.78
2018-12-31T16:54:33.119Z,55.28
2018-12-31T16:57:13.076Z,65.60
2018-12-31T16:59:53.334Z,57.25
2018-12-31T17:02:33.513Z,62.70
2018-12-31T17:05:13.205Z,56.50
2018-12-31T17:07:40.639Z,51.92
2018-12-31T17:10:27.596Z,50.03
2018-12-31T17:13:09.738Z,55.52
2018-12-31T17:15:51.064Z,43.95
2018-12-31T17:18:20.231Z,45.30
2018-12-31T17:21:05.353Z,51.10
2018-12-31T17:23:46.654Z,55.60
2018-12-31T17:26:28.396Z,48.83
2018-12-31T17:29:09.452Z,52.70
2018-12-31T17:31:49.912Z,58.20
2018-12-31T17:34:30.395Z,62.60
2018-12-31T17:36:58.283Z,65.70
2018-12-31T17:39:27.703Z,59.23
2018-12-31T17:42:09.880Z,61.85
2018-12-31T17:47:17.182Z,70.62
2018-12-31T17:50:23.635Z,68.35
2018-12-31T17:53:04.785Z,63.05
2018-12-31T17:55:45.439Z,64.12
2018-12-31T17:58:26.837Z,59.88
2018-12-31T18:01:08.048Z,61.80
2018-12-31T18:03:48.695Z,66.55
2018-12-31T18:06:30.414Z,65.17
2018-12-31T18:09:10.428Z,60.48
2018-12-31T18:11:38.007Z,62.45
2018-12-31T18:14:25.266Z,66.17
2018-12-31T18:17:05.648Z,59.53
2018-12-31T18:19:45.651Z,57.48
2018-12-31T18:22:25.978Z,54.90
2018-12-31T18:25:07.150Z,62.13
2018-12-31T18:27:47.674Z,58.58
2018-12-31T18:30:17.915Z,62.08
2018-12-31T18:33:08.184Z,57.95
2018-12-31T18:35:37.617Z,57.38
2018-12-31T18:38:07.341Z,60.52
2018-12-31T18:40:49.658Z,58.78
2018-12-31T18:43:25.971Z,58.80
2018-12-31T18:46:14.783Z,64.10
2018-12-31T18:49:02.821Z,58.05
2018-12-31T18:51:42.982Z,64.72
2018-12-31T18:54:22.975Z,52.38
2018-12-31T18:57:03.281Z,53.60
2018-12-31T18:59:44.442Z,51.53
2018-12-31T19:02:26.435Z,51.77
2018-12-31T19:04:54.742Z,63.02
2018-12-31T19:07:44.678Z,56.60
2018-12-31T19:10:46.850Z,53.17
2018-12-31T19:13:28.078Z,49.90
2018-12-31T19:16:08.116Z,50.12
2018-12-31T19:18:48.240Z,50.25
2018-12-31T19:21:38.619Z,46.70
2018-12-31T19:24:25.325Z,40.95
2018-12-31T19:27:06.504Z,38.70
2018-12-31T19:29:57.507Z,43.40
2018-12-31T19:32:46.086Z,34.67
2018-12-31T19:35:14.062Z,36.00
2018-12-31T19:38:01.784Z,37.50
2018-12-31T19:40:29.736Z,40.30
2018-12-31T19:43:18.654Z,38.63
2018-12-31T19:45:58.593Z,47.23
2018-12-31T19:48:38.486Z,34.45
2018-12-31T19:51:18.690Z,39.65
2018-12-31T19:53:58.903Z,39.15
2018-12-31T19:56:39.716Z,37.58
2018-12-31T19:59:20.826Z,64.12
2018-12-31T20:02:02.088Z,58.35
2018-12-31T20:04:30.408Z,38.50
2018-12-31T20:07:19.002Z,38.40
2018-12-31T20:10:01.170Z,37.23
2018-12-31T20:12:42.135Z,35.03
2018-12-31T20:15:21.981Z,34.65
2018-12-31T20:18:02.233Z,32.40
2018-12-31T20:20:42.393Z,33.78
2018-12-31T20:23:22.511Z,34.10
2018-12-31T20:26:02.653Z,37.95
2018-12-31T20:28:43.667Z,31.52
2018-12-31T20:31:17.235Z,32.85
2018-12-31T20:33:46.090Z,32.50
2018-12-31T20:36:28.253Z,38.78
2018-12-31T20:38:58.424Z,37.78
2018-12-31T20:41:47.033Z,43.17
2018-12-31T20:44:20.292Z,35.50
2018-12-31T20:47:08.977Z,41.28
2018-12-31T20:49:48.525Z,44.77
2018-12-31T20:52:28.507Z,42.00
2018-12-31T20:55:08.615Z,40.15
2018-12-31T20:57:48.720Z,40.03
2018-12-31T21:00:38.476Z,43.42
2018-12-31T21:03:26.095Z,49.85
2018-12-31T21:06:06.904Z,113.28
2018-12-31T21:08:38.291Z,76.45
2018-12-31T21:11:07.350Z,64.05
2018-12-31T21:13:49.131Z,49.75
2018-12-31T21:16:30.309Z,44.33
2018-12-31T21:19:11.580Z,49.88
2018-12-31T21:21:56.431Z,43.45
2018-12-31T21:24:37.599Z,57.13
2018-12-31T21:27:17.648Z,57.23
2018-12-31T21:29:57.918Z,51.63
2018-12-31T21:32:37.967Z,51.70
2018-12-31T21:37:59.554Z,45.45
2018-12-31T21:40:28.328Z,50.95
2018-12-31T21:43:04.031Z,51.05
2018-12-31T21:45:44.479Z,54.03
2018-12-31T21:48:25.451Z,47.27
2018-12-31T21:51:06.606Z,51.95
2018-12-31T21:53:37.101Z,49.98
2018-12-31T21:56:06.215Z,42.98
2018-12-31T21:58:55.726Z,42.13
2018-12-31T22:01:37.283Z,40.85
2018-12-31T22:04:20.815Z,46.00
2018-12-31T22:07:00.326Z,47.75
2018-12-31T22:09:40.291Z,45.50
2018-12-31T22:12:20.612Z,44.95
2018-12-31T22:15:00.843Z,59.80
2018-12-31T22:17:28.810Z,50.83
2018-12-31T22:20:17.423Z,50.38
2018-12-31T22:22:59.168Z,47.90
2018-12-31T22:25:40.175Z,51.83
2018-12-31T22:28:21.326Z,53.20
2018-12-31T22:30:49.362Z,51.35
2018-12-31T22:33:18.040Z,49.85
2018-12-31T22:36:06.646Z,50.83
2018-12-31T22:38:46.031Z,59.27
2018-12-31T22:41:26.244Z,58.20
2018-12-31T22:44:15.749Z,56.63
2018-12-31T22:47:03.641Z,57.83
2018-12-31T22:52:34.463Z,58.68
2018-12-31T22:55:15.314Z,61.65
2018-12-31T22:57:56.293Z,70.22
2018-12-31T23:00:37.523Z,66.67
2018-12-31T23:03:21.884Z,91.10
2018-12-31T23:06:01.734Z,216.82
2018-12-31T23:08:41.880Z,668.37
2018-12-31T23:11:14.072Z,650.00
2018-12-31T23:14:01.491Z,569.42
2018-12-31T23:19:41.634Z,505.30
2018-12-31T23:22:13.983Z,451.15
2018-12-31T23:24:56.959Z,484.48
2018-12-31T23:27:38.253Z,466.15
2018-12-31T23:30:19.566Z,345.63
2018-12-31T23:32:51.374Z,336.75
2018-12-31T23:35:42.071Z,437.05
2018-12-31T23:38:11.786Z,361.40
2018-12-31T23:41:00.448Z,323.27
2018-12-31T23:43:42.666Z,341.98
2018-12-31T23:46:15.174Z,287.38
2018-12-31T23:49:03.951Z,241.63
2018-12-31T23:51:46.568Z,205.75
2018-12-31T23:54:14.115Z,183.05
2018-12-31T23:57:01.688Z,199.57
2018-12-31T23:59:42.262Z,196.30
